Time;durP1;ratioP1;P1;durP2;ratioP2;P2;SDS_P1;SDS_P2;PMS_P1;PMS_P2;Temp;Humidity;BMP_temperature;BMP_pressure;BME280_temperature;BME280_humidity;BME280_pressure;Samples;Min_cycle;Max_cycle;Signal;HPM_P1;HPM_P2
2022/03/19 00:00:51;;;;;;;2.90;1.58;;;;;;;5.69;100.00;104382.97;6274919;28;20443;-73
2022/03/19 00:03:52;;;;;;;3.67;1.75;;;;;;;5.64;100.00;104388.94;6276272;28;20182;-73
2022/03/19 00:06:53;;;;;;;1.92;1.35;;;;;;;5.57;100.00;104391.34;6275988;28;20052;-74
2022/03/19 00:09:57;;;;;;;3.78;1.50;;;;;;;5.54;100.00;104390.38;6275789;28;20045;-74
2022/03/19 00:12:59;;;;;;;4.90;2.33;;;;;;;5.52;100.00;104390.34;6275406;28;20424;-73
2022/03/19 00:16:01;;;;;;;3.97;1.75;;;;;;;5.50;100.00;104394.66;6276199;28;20135;-73
2022/03/19 00:19:03;;;;;;;8.13;2.22;;;;;;;5.49;100.00;104392.00;6275714;28;20496;-74
2022/03/19 00:22:05;;;;;;;3.22;1.33;;;;;;;5.44;100.00;104389.25;6275157;28;20045;-73
2022/03/19 00:25:09;;;;;;;3.13;1.65;;;;;;;5.42;100.00;104396.19;6275687;28;20053;-73
2022/03/19 00:28:10;;;;;;;2.83;1.48;;;;;;;5.38;100.00;104386.50;6275431;28;20454;-74
2022/03/19 00:31:12;;;;;;;3.97;1.50;;;;;;;5.33;100.00;104394.22;6274862;28;20049;-73
2022/03/19 00:34:14;;;;;;;2.65;1.40;;;;;;;5.30;100.00;104398.44;6275443;28;20056;-74
2022/03/19 00:37:15;;;;;;;5.88;1.02;;;;;;;5.21;100.00;104390.38;6275367;28;20059;-73
2022/03/19 00:40:18;;;;;;;6.45;1.42;;;;;;;5.15;100.00;104396.31;6275234;28;20103;-72
2022/03/19 00:43:20;;;;;;;5.85;1.50;;;;;;;5.12;100.00;104392.72;6275348;28;20052;-74
2022/03/19 00:46:23;;;;;;;5.00;1.52;;;;;;;5.07;100.00;104392.59;6275105;28;20155;-73
2022/03/19 00:49:24;;;;;;;6.97;1.67;;;;;;;4.99;100.00;104386.28;6275138;28;20076;-74
2022/03/19 00:52:26;;;;;;;2.92;1.40;;;;;;;4.93;100.00;104386.09;6274413;28;20523;-74
2022/03/19 00:55:27;;;;;;;3.60;1.45;;;;;;;4.89;100.00;104386.84;6275140;28;20053;-73
2022/03/19 00:58:28;;;;;;;3.10;1.38;;;;;;;4.84;100.00;104389.31;6274766;28;20052;-73
2022/03/19 01:01:31;;;;;;;6.63;1.13;;;;;;;4.77;100.00;104383.06;6274441;28;20045;-73
2022/03/19 01:04:32;;;;;;;4.07;1.35;;;;;;;4.76;100.00;104377.78;6274775;28;20045;-74
2022/03/19 01:07:34;;;;;;;2.20;1.08;;;;;;;4.67;100.00;104382.72;6274930;28;20053;-73
2022/03/19 01:10:36;;;;;;;4.47;1.05;;;;;;;4.62;100.00;104382.59;6272733;28;20045;-73
2022/03/19 01:13:37;;;;;;;6.85;1.88;;;;;;;4.56;100.00;104378.09;6274782;28;20051;-73
2022/03/19 01:16:39;;;;;;;1.83;1.17;;;;;;;4.54;100.00;104384.06;6274293;28;20458;-73
2022/03/19 01:19:58;;;;;;;2.10;1.42;;;;;;;4.51;100.00;104370.97;6274216;28;20048;-73
2022/03/19 01:22:59;;;;;;;6.32;1.35;;;;;;;4.45;100.00;104371.69;6274080;28;20103;-73
2022/03/19 01:26:01;;;;;;;2.53;1.15;;;;;;;4.43;100.00;104377.66;6274054;28;20416;-73
2022/03/19 01:29:02;;;;;;;4.75;1.80;;;;;;;4.35;100.00;104373.94;6274578;28;20057;-74
2022/03/19 01:32:05;;;;;;;2.72;1.55;;;;;;;4.30;100.00;104374.69;6273346;28;20044;-73
2022/03/19 01:35:08;;;;;;;4.03;1.35;;;;;;;4.28;100.00;104372.88;6274256;28;20489;-73
2022/03/19 01:38:09;;;;;;;3.45;1.55;;;;;;;4.22;100.00;104380.47;6273847;28;20052;-73
2022/03/19 01:41:11;;;;;;;2.10;1.20;;;;;;;4.18;100.00;104378.59;6273387;28;20056;-73
2022/03/19 01:44:18;;;;;;;3.17;1.40;;;;;;;4.16;100.00;104378.56;6273594;28;20049;-73
2022/03/19 01:47:21;;;;;;;6.63;1.55;;;;;;;4.10;100.00;104381.00;6273817;28;20062;-73
2022/03/19 01:50:24;;;;;;;4.72;1.30;;;;;;;4.05;100.00;104392.97;6273045;28;20053;-73
2022/03/19 01:53:25;;;;;;;5.35;1.63;;;;;;;4.03;100.00;104385.09;6273773;28;20060;-74
2022/03/19 01:56:27;;;;;;;1.95;1.52;;;;;;;4.02;100.00;104380.72;6273468;28;20056;-73
2022/03/19 01:59:33;;;;;;;6.50;1.42;;;;;;;4.02;100.00;104385.06;6273583;28;20420;-73
2022/03/19 02:02:36;;;;;;;2.33;1.17;;;;;;;4.04;100.00;104388.56;6272873;28;20045;-73
2022/03/19 02:05:38;;;;;;;3.45;1.20;;;;;;;4.05;100.00;104392.97;6273344;28;20068;-73
2022/03/19 02:08:42;;;;;;;3.30;1.52;;;;;;;4.03;100.00;104398.09;6273367;28;20122;-73
2022/03/19 02:11:44;;;;;;;5.97;1.60;;;;;;;4.00;100.00;104389.34;6272318;28;20045;-73
2022/03/19 02:14:47;;;;;;;6.72;2.33;;;;;;;3.93;100.00;104383.03;6273184;28;20060;-73
2022/03/19 02:17:50;;;;;;;2.90;2.08;;;;;;;3.91;100.00;104382.13;6272881;28;20063;-73
2022/03/19 02:20:56;;;;;;;4.15;1.60;;;;;;;3.71;100.00;104378.84;6272372;28;20041;-73
2022/03/19 02:27:19;;;;;;;1.48;1.15;;;;;;;3.65;100.00;104370.84;6273017;28;20052;-73
2022/03/19 02:30:21;;;;;;;2.10;0.85;;;;;;;3.63;100.00;104367.28;6271904;28;20451;-73
2022/03/19 02:33:22;;;;;;;1.75;1.38;;;;;;;3.59;100.00;104367.13;6272925;28;20053;-73
2022/03/19 02:36:24;;;;;;;3.45;1.15;;;;;;;3.58;100.00;104365.34;6272536;28;20053;-73
2022/03/19 02:39:30;;;;;;;2.50;1.52;;;;;;;3.58;100.00;104368.84;6272640;28;20049;-73
2022/03/19 02:42:32;;;;;;;3.35;1.63;;;;;;;3.58;100.00;104362.75;6271763;28;20048;-73
2022/03/19 02:45:33;;;;;;;3.53;1.75;;;;;;;3.56;100.00;104362.72;6272583;28;20075;-73
2022/03/19 02:48:35;;;;;;;3.03;1.08;;;;;;;3.62;100.00;104365.50;6272358;28;20057;-73
2022/03/19 02:51:38;;;;;;;4.68;1.30;;;;;;;3.60;100.00;104361.13;6271650;28;20045;-72
2022/03/19 02:54:40;;;;;;;3.05;1.88;;;;;;;3.59;100.00;104368.03;6272242;28;20053;-73
2022/03/19 02:57:42;;;;;;;4.68;1.42;;;;;;;3.56;100.00;104362.72;6272079;28;20412;-73
2022/03/19 03:00:43;;;;;;;6.70;1.95;;;;;;;3.52;100.00;104366.91;6271567;28;20049;-73
2022/03/19 03:03:44;;;;;;;3.80;1.63;;;;;;;3.50;100.00;104367.72;6271939;28;20049;-73
2022/03/19 03:06:47;;;;;;;3.65;1.25;;;;;;;3.43;100.00;104366.59;6272023;28;20057;-73
2022/03/19 03:09:50;;;;;;;1.73;1.10;;;;;;;3.38;100.00;104359.50;6271480;28;20056;-73
2022/03/19 03:12:51;;;;;;;10.40;1.30;;;;;;;3.35;100.00;104360.25;6271622;28;20480;-73
2022/03/19 03:15:52;;;;;;;2.28;1.00;;;;;;;3.26;100.00;104365.13;6270783;28;20058;-73
2022/03/19 03:18:55;;;;;;;4.93;1.02;;;;;;;3.22;100.00;104356.31;6271755;28;20048;-73
2022/03/19 03:21:56;;;;;;;1.88;1.20;;;;;;;3.20;100.00;104360.59;6271409;28;20049;-73
2022/03/19 03:24:59;;;;;;;6.57;1.40;;;;;;;3.21;100.00;104356.28;6271878;28;20055;-73
2022/03/19 03:28:00;;;;;;;3.15;1.27;;;;;;;3.23;100.00;104352.94;6271429;28;20048;-73
2022/03/19 03:31:02;;;;;;;4.60;1.08;;;;;;;3.22;100.00;104356.31;6270793;28;20436;-73
2022/03/19 03:34:04;;;;;;;4.95;1.35;;;;;;;3.19;100.00;104363.16;6270957;28;20719;-73
2022/03/19 03:37:05;;;;;;;3.55;1.33;;;;;;;3.23;100.00;104357.25;6270988;28;20053;-74
2022/03/19 03:40:09;;;;;;;1.73;1.13;;;;;;;3.26;100.00;104358.22;6271121;28;20059;-73
2022/03/19 03:43:10;;;;;;;2.80;1.98;;;;;;;3.26;100.00;104358.22;6271005;28;20485;-73
2022/03/19 03:46:12;;;;;;;3.58;1.70;;;;;;;3.27;100.00;104361.69;6271396;28;20060;-72
2022/03/19 03:49:13;;;;;;;6.55;1.60;;;;;;;3.28;100.00;104363.47;6271612;28;20060;-73
2022/03/19 03:52:15;;;;;;;2.38;1.25;;;;;;;3.26;100.00;104360.81;6270613;28;20041;-73
2022/03/19 03:55:18;;;;;;;8.15;1.27;;;;;;;3.23;100.00;104362.44;6271280;28;20051;-73
2022/03/19 03:58:19;;;;;;;7.57;2.50;;;;;;;3.22;100.00;104358.03;6271273;28;20053;-73
2022/03/19 04:01:21;;;;;;;1.65;0.63;;;;;;;3.20;100.00;104363.19;6270388;28;20455;-74
2022/03/19 04:04:22;;;;;;;4.88;1.30;;;;;;;3.13;100.00;104368.13;6271394;28;20057;-73
2022/03/19 04:07:23;;;;;;;3.15;1.42;;;;;;;3.00;100.00;104362.50;6270929;28;20052;-73
2022/03/19 04:10:26;;;;;;;1.98;1.05;;;;;;;2.97;100.00;104364.97;6270244;28;20052;-73
2022/03/19 04:13:27;;;;;;;2.10;1.02;;;;;;;2.96;100.00;104373.59;6271159;28;20056;-73
2022/03/19 04:16:29;;;;;;;1.60;1.40;;;;;;;2.96;100.00;104368.41;6270733;28;20056;-73
2022/03/19 04:19:30;;;;;;;3.63;1.15;;;;;;;2.98;100.00;104366.75;6271116;28;20500;-73
2022/03/19 04:22:35;;;;;;;5.47;2.00;;;;;;;2.97;100.00;104361.50;6270141;28;20052;-73
2022/03/19 04:25:38;;;;;;;1.88;1.15;;;;;;;2.86;100.00;104363.72;6271077;28;20053;-74
2022/03/19 04:28:40;;;;;;;1.58;0.98;;;;;;;2.83;100.00;104367.91;6270786;28;20053;-73
2022/03/19 04:31:41;;;;;;;3.20;1.38;;;;;;;2.77;100.00;104364.25;6270306;28;20045;-73
2022/03/19 04:34:42;;;;;;;1.63;1.20;;;;;;;2.74;100.00;104373.63;6270808;28;20052;-73
2022/03/19 04:37:43;;;;;;;3.20;1.70;;;;;;;2.72;100.00;104368.34;6270906;28;20060;-73
2022/03/19 04:40:47;;;;;;;1.90;1.20;;;;;;;2.73;100.00;104364.97;6270114;28;20056;-73
2022/03/19 04:43:49;;;;;;;7.45;1.58;;;;;;;2.73;100.00;104366.69;6270571;28;20048;-73
2022/03/19 04:46:50;;;;;;;8.30;1.75;;;;;;;2.62;100.00;104368.84;6274965;28;20416;-73
2022/03/19 04:49:52;;;;;;;3.50;1.60;;;;;;;2.51;100.00;104368.44;6274726;28;20049;-73
2022/03/19 04:52:54;;;;;;;2.63;1.67;;;;;;;2.45;100.00;104362.13;6274749;28;20045;-73
2022/03/19 04:55:57;;;;;;;1.27;0.95;;;;;;;2.52;100.00;104377.13;6274841;28;20063;-73
2022/03/19 04:59:01;;;;;;;1.35;0.93;;;;;;;2.55;100.00;104369.47;6275056;28;20045;-73
2022/03/19 05:02:02;;;;;;;3.38;1.55;;;;;;;2.50;100.00;104376.19;6274210;28;20510;-73
2022/03/19 05:05:04;;;;;;;4.75;1.75;;;;;;;2.50;100.00;104371.88;6274947;28;20060;-73
2022/03/19 05:08:06;;;;;;;3.13;1.52;;;;;;;2.57;100.00;104374.69;6274628;28;20079;-73
2022/03/19 05:11:14;;;;;;;7.45;1.75;;;;;;;2.45;100.00;104370.81;6274090;28;20052;-73
2022/03/19 05:14:15;;;;;;;15.27;2.35;;;;;;;2.45;100.00;104373.41;6274711;28;20492;-73
2022/03/19 05:17:16;;;;;;;8.00;1.90;;;;;;;2.43;100.00;104367.25;6274528;28;20053;-72
2022/03/19 05:20:17;;;;;;;2.28;1.27;;;;;;;2.41;100.00;104373.22;6273790;28;20049;-73
2022/03/19 05:23:19;;;;;;;6.88;1.65;;;;;;;2.35;100.00;104378.16;6274355;28;20049;-73
2022/03/19 05:26:22;;;;;;;6.63;2.30;;;;;;;2.33;100.00;104367.75;6274302;28;20052;-74
2022/03/19 05:29:23;;;;;;;2.78;1.50;;;;;;;2.41;100.00;104368.94;6274221;28;20067;-73
2022/03/19 05:32:25;;;;;;;3.95;1.80;;;;;;;2.41;100.00;104370.63;6273607;28;20048;-73
2022/03/19 05:35:27;;;;;;;3.22;1.92;;;;;;;2.34;100.00;104364.31;6274080;28;20060;-73
2022/03/19 05:38:28;;;;;;;5.78;1.40;;;;;;;2.36;100.00;104361.75;6274059;28;20053;-73
2022/03/19 05:41:31;;;;;;;6.13;1.80;;;;;;;2.39;100.00;104360.19;6273286;28;20397;-73
2022/03/19 05:44:32;;;;;;;1.95;1.35;;;;;;;2.41;100.00;104360.25;6274026;28;20045;-73
2022/03/19 05:47:34;;;;;;;7.47;1.02;;;;;;;2.35;100.00;104373.84;6273680;28;20075;-73
2022/03/19 05:50:36;;;;;;;6.95;1.73;;;;;;;2.28;100.00;104370.16;6273170;28;20634;-73
2022/03/19 05:53:40;;;;;;;5.22;2.05;;;;;;;2.22;100.00;104374.19;6273716;28;20052;-73
2022/03/19 05:56:43;;;;;;;9.02;1.65;;;;;;;2.27;100.00;104362.28;6272980;28;20053;-73
2022/03/19 05:59:44;;;;;;;6.65;1.50;;;;;;;2.32;100.00;104365.06;6273391;28;20060;-74
2022/03/19 06:02:46;;;;;;;6.80;1.80;;;;;;;2.33;100.00;104366.84;6273044;28;20048;-73
2022/03/19 06:05:47;;;;;;;5.78;1.75;;;;;;;2.34;100.00;104366.03;6273429;28;20053;-73
2022/03/19 06:08:49;;;;;;;5.18;2.20;;;;;;;2.37;100.00;104369.63;6273631;28;20145;-73
2022/03/19 06:11:51;;;;;;;4.13;1.65;;;;;;;2.34;100.00;104366.03;6272608;28;20052;-73
2022/03/19 06:14:54;;;;;;;3.85;2.00;;;;;;;2.38;100.00;104365.31;6273194;28;20060;-73
2022/03/19 06:17:55;;;;;;;2.72;1.75;;;;;;;2.42;100.00;104362.91;6273064;28;20049;-73
2022/03/19 06:20:57;;;;;;;7.20;2.10;;;;;;;2.48;100.00;104365.72;6272213;28;20053;-73
2022/03/19 06:23:58;;;;;;;11.88;2.00;;;;;;;2.49;100.00;104364.00;6273224;28;20104;-73
2022/03/19 06:27:01;;;;;;;9.57;2.00;;;;;;;2.49;100.00;104367.50;6272887;28;20048;-73
2022/03/19 06:30:02;;;;;;;2.28;1.40;;;;;;;2.48;100.00;104364.84;6272437;28;20053;-73
2022/03/19 06:33:04;;;;;;;4.80;1.88;;;;;;;2.44;100.00;104368.13;6272590;28;20045;-74
2022/03/19 06:39:25;;;;;;;5.63;3.28;;;;;;;2.44;100.00;104363.84;6272806;28;20475;-73
2022/03/19 06:42:28;;;;;;;10.38;2.97;;;;;;;2.48;100.00;104367.44;6271422;28;20040;-73
2022/03/19 06:45:29;;;;;;;7.47;2.88;;;;;;;2.57;100.00;104364.31;6272503;28;20115;-72
2022/03/19 06:48:30;;;;;;;18.60;3.65;;;;;;;2.53;100.00;104363.31;6272171;28;20055;-73
2022/03/19 06:51:31;;;;;;;7.32;3.63;;;;;;;2.60;100.00;104365.31;6271612;28;20048;-73
2022/03/19 06:54:33;;;;;;;11.15;3.70;;;;;;;2.71;100.00;104371.78;6272273;28;20053;-73
2022/03/19 06:57:36;;;;;;;10.73;3.97;;;;;;;2.74;100.00;104363.25;6272061;28;20056;-73
2022/03/19 07:00:39;;;;;;;11.73;4.38;;;;;;;2.67;100.00;104372.50;6271840;28;20057;-73
2022/03/19 07:03:42;;;;;;;15.43;5.30;;;;;;;2.69;100.00;104355.28;6272186;28;20041;-73
2022/03/19 07:06:43;;;;;;;11.80;3.35;;;;;;;2.77;100.00;104364.25;6271955;28;20053;-73
2022/03/19 07:09:44;;;;;;;12.82;3.20;;;;;;;2.78;100.00;104355.63;6271031;28;20052;-73
2022/03/19 07:12:48;;;;;;;10.88;4.53;;;;;;;2.86;100.00;104361.13;6271423;28;20060;-73
2022/03/19 07:15:49;;;;;;;7.55;3.28;;;;;;;2.90;100.00;104362.97;6271724;28;20045;-73
2022/03/19 07:18:51;;;;;;;11.07;2.70;;;;;;;2.99;100.00;104365.03;6270045;28;20056;-73
2022/03/19 07:21:52;;;;;;;7.95;2.50;;;;;;;3.08;100.00;104362.75;6271205;28;20045;-73
2022/03/19 07:24:54;;;;;;;19.73;4.93;;;;;;;3.12;100.00;104359.44;6271562;28;20398;-73
2022/03/19 07:27:58;;;;;;;11.35;3.13;;;;;;;3.28;100.00;104353.97;6271692;28;20052;-73
2022/03/19 07:31:00;;;;;;;4.85;2.42;;;;;;;3.30;100.00;104346.22;6270759;28;20052;-73
2022/03/19 07:34:01;;;;;;;12.25;2.92;;;;;;;3.34;100.00;104352.41;6271521;28;20045;-73
2022/03/19 07:37:03;;;;;;;15.32;2.20;;;;;;;3.35;100.00;104346.38;6271266;28;20057;-73
2022/03/19 07:40:05;;;;;;;8.05;2.70;;;;;;;3.47;100.00;104344.19;6271265;28;20056;-73
2022/03/19 07:43:08;;;;;;;4.28;2.00;;;;;;;3.53;100.00;104340.06;6271010;28;20044;-73
2022/03/19 07:46:09;;;;;;;5.82;2.45;;;;;;;3.51;100.00;104338.28;6271339;28;20412;-73
2022/03/19 07:49:11;;;;;;;2.42;1.50;;;;;;;3.60;100.00;104340.31;6271214;28;20055;-74
2022/03/19 07:52:13;;;;;;;7.45;3.05;;;;;;;3.63;100.00;104340.38;6270600;28;20546;-73
2022/03/19 07:55:14;;;;;;;6.82;2.22;;;;;;;3.67;100.00;104332.72;6271232;28;20511;-73
2022/03/19 07:58:17;;;;;;;10.50;2.83;;;;;;;3.75;100.00;104333.00;6271440;28;20060;-73
2022/03/19 08:01:20;;;;;;;5.97;1.95;;;;;;;3.81;100.00;104330.59;6270463;28;20048;-73
2022/03/19 08:04:22;;;;;;;3.72;1.58;;;;;;;3.92;100.00;104329.22;6271221;28;20060;-73
2022/03/19 08:07:23;;;;;;;4.63;1.98;;;;;;;4.01;100.00;104328.66;6271143;28;20049;-73
2022/03/19 08:10:25;;;;;;;4.30;1.58;;;;;;;4.08;100.00;104323.66;6270313;28;20057;-73
2022/03/19 08:13:27;;;;;;;1.58;1.15;;;;;;;4.10;100.00;104323.72;6271025;28;20056;-73
2022/03/19 08:16:29;;;;;;;3.13;1.67;;;;;;;4.24;100.00;104326.75;6270741;28;20045;-74
2022/03/19 08:19:31;;;;;;;2.70;1.45;;;;;;;4.29;100.00;104330.38;6271748;28;20045;-73
2022/03/19 08:22:32;;;;;;;5.07;1.70;;;;;;;4.39;100.00;104332.41;6275446;28;20044;-73
2022/03/19 08:25:33;;;;;;;2.78;1.27;;;;;;;4.45;100.00;104314.41;6276026;28;20136;-73
2022/03/19 08:28:36;;;;;;;3.20;1.65;;;;;;;4.44;100.00;104325.63;6275561;28;20048;-73
2022/03/19 08:31:37;;;;;;;2.78;1.35;;;;;;;4.48;100.00;104317.06;6275033;28;20140;-73
2022/03/19 08:34:39;;;;;;;4.95;1.40;;;;;;;4.52;100.00;104315.44;6275516;28;20056;-73
2022/03/19 08:37:40;;;;;;;4.82;1.27;;;;;;;4.60;100.00;104316.56;6275327;28;20049;-74
2022/03/19 08:40:41;;;;;;;9.95;1.15;;;;;;;4.75;100.00;104319.59;6274927;28;20079;-73
2022/03/19 08:43:44;;;;;;;2.90;1.25;;;;;;;4.94;100.00;104307.94;6275575;28;20049;-72
2022/03/19 08:46:45;;;;;;;4.75;1.60;;;;;;;5.01;100.00;104307.28;6275129;28;20407;-73
2022/03/19 08:49:47;;;;;;;10.80;1.55;;;;;;;5.01;100.00;104306.41;6274849;28;20064;-73
2022/03/19 08:52:48;;;;;;;4.43;0.88;;;;;;;5.08;100.00;104309.19;6274760;28;20049;-73
2022/03/19 08:55:49;;;;;;;11.73;1.63;;;;;;;5.13;100.00;104308.44;6274935;28;20068;-73
2022/03/19 08:58:52;;;;;;;2.28;0.90;;;;;;;5.16;100.00;104303.31;6275232;28;20053;-73
2022/03/19 09:01:54;;;;;;;3.83;1.10;;;;;;;5.16;100.00;104293.78;6274279;28;20052;-73
2022/03/19 09:04:55;;;;;;;7.40;1.38;;;;;;;5.24;100.00;104293.97;6275074;28;20057;-73
2022/03/19 09:07:57;;;;;;;1.63;1.02;;;;;;;5.40;100.00;104301.34;6274771;28;20055;-73
2022/03/19 09:10:58;;;;;;;7.97;0.70;;;;;;;5.45;100.00;104299.75;6273975;28;20052;-73
2022/03/19 09:14:03;;;;;;;2.90;1.23;;;;;;;5.50;100.00;104289.44;6274544;28;20393;-73
2022/03/19 09:17:05;;;;;;;3.28;0.80;;;;;;;5.56;100.00;104286.97;6274200;28;20056;-73
2022/03/19 09:20:07;;;;;;;2.72;0.85;;;;;;;5.56;100.00;104287.84;6274370;28;20049;-74
2022/03/19 09:23:09;;;;;;;2.95;0.77;;;;;;;5.84;100.00;104285.91;6274040;28;20049;-74
2022/03/19 09:26:10;;;;;;;2.13;1.08;;;;;;;5.94;100.00;104282.69;6274433;28;20049;-74
2022/03/19 09:29:15;;;;;;;0.65;0.50;;;;;;;6.10;100.00;104268.25;6274302;28;20045;-73
2022/03/19 09:32:17;;;;;;;4.15;0.60;;;;;;;6.31;100.00;104273.03;6272714;28;20135;-74
2022/03/19 09:35:19;;;;;;;1.63;0.65;;;;;;;6.50;96.03;104264.75;6274198;28;20076;-74
2022/03/19 09:38:20;;;;;;;0.50;0.50;;;;;;;6.65;96.46;104268.53;6274196;28;20052;-74
2022/03/19 09:41:21;;;;;;;0.93;0.50;;;;;;;6.73;95.48;104269.56;6273504;28;20075;-73
2022/03/19 09:44:26;;;;;;;2.80;1.10;;;;;;;6.85;94.03;104261.94;6273803;28;20493;-74
2022/03/19 09:47:27;;;;;;;4.13;0.50;;;;;;;6.88;93.21;104258.50;6273811;28;20061;-73
2022/03/19 09:50:29;;;;;;;6.68;0.77;;;;;;;6.90;95.69;104262.03;6273132;28;20056;-73
2022/03/19 09:53:31;;;;;;;2.15;0.70;;;;;;;6.93;93.99;104259.47;6273553;28;20416;-73
2022/03/19 09:56:34;;;;;;;2.15;0.80;;;;;;;7.08;93.42;104254.50;6273515;28;20424;-73
2022/03/19 09:59:37;;;;;;;3.88;0.93;;;;;;;7.10;95.28;104245.84;6273795;28;20045;-74
2022/03/19 10:02:51;;;;;;;2.40;0.70;;;;;;;7.26;92.47;104248.72;6272970;28;20048;-73
2022/03/19 10:09:17;;;;;;;1.90;0.80;;;;;;;7.48;91.83;104232.50;6273335;28;20045;-73
2022/03/19 10:12:21;;;;;;;2.63;0.93;;;;;;;7.61;90.63;104230.97;6272641;28;20040;-73
2022/03/19 10:15:25;;;;;;;8.75;2.08;;;;;;;7.93;87.54;104223.56;6273102;28;20052;-74
2022/03/19 10:18:27;;;;;;;5.28;1.40;;;;;;;7.94;86.35;104214.84;6272911;28;20049;-73
2022/03/19 10:21:35;;;;;;;1.02;0.68;;;;;;;7.91;86.00;104214.84;6272344;28;20091;-72
2022/03/19 10:24:38;;;;;;;2.28;1.27;;;;;;;7.98;85.11;104205.31;6273120;28;20044;-74
2022/03/19 10:27:40;;;;;;;15.05;1.40;;;;;;;8.07;84.80;104211.53;6272835;28;20051;-73
2022/03/19 10:30:43;;;;;;;107.05;14.93;;;;;;;8.02;84.59;104202.75;6272212;28;20055;-74
2022/03/19 10:33:49;;;;;;;1.10;0.50;;;;;;;8.10;84.53;104185.38;6272682;28;20558;-73
2022/03/19 10:36:50;;;;;;;3.80;0.50;;;;;;;8.27;82.46;104184.72;6272834;28;20056;-74
2022/03/19 10:39:52;;;;;;;1.92;0.70;;;;;;;8.51;80.88;104194.63;6272427;28;20044;-73
2022/03/19 10:42:58;;;;;;;30.75;5.18;;;;;;;8.63;78.54;104185.16;6272279;28;20049;-73
2022/03/19 10:46:04;;;;;;;0.70;0.40;;;;;;;8.69;78.33;104181.72;6272274;28;20724;-74
2022/03/19 10:49:12;;;;;;;4.40;0.65;;;;;;;8.63;81.92;104179.03;6272685;28;20492;-74
2022/03/19 10:52:17;;;;;;;7.20;1.58;;;;;;;8.76;80.66;104170.41;6271671;28;20045;-73
2022/03/19 10:55:19;;;;;;;3.03;0.80;;;;;;;8.78;78.06;104166.06;6272949;28;20052;-73
2022/03/19 10:58:21;;;;;;;1.70;0.63;;;;;;;8.84;76.24;104166.09;6272151;28;20049;-74
2022/03/19 11:01:23;;;;;;;6.00;1.73;;;;;;;8.98;77.83;104157.47;6271409;28;20053;-73
2022/03/19 11:04:25;;;;;;;2.63;0.40;;;;;;;9.01;74.52;104147.03;6272423;28;20049;-74
2022/03/19 11:07:30;;;;;;;8.32;0.75;;;;;;;9.33;75.20;104142.88;6271884;28;20052;-74
2022/03/19 11:10:31;;;;;;;30.73;3.33;;;;;;;9.32;74.51;104138.50;6271442;28;20049;-73
2022/03/19 11:13:37;;;;;;;2.13;0.50;;;;;;;9.42;77.16;104136.81;6271722;28;20045;-73
2022/03/19 11:16:41;;;;;;;1.95;0.47;;;;;;;9.50;76.49;104123.75;6271917;28;20051;-74
2022/03/19 11:19:44;;;;;;;1.45;0.45;;;;;;;9.74;69.98;104121.22;6271388;28;20049;-72
2022/03/19 11:22:50;;;;;;;1.08;0.35;;;;;;;9.83;72.39;104118.63;6271466;28;20060;-73
2022/03/19 11:25:54;;;;;;;47.53;4.20;;;;;;;9.89;68.34;104118.66;6271623;28;20071;-74
2022/03/19 11:28:57;;;;;;;17.65;2.00;;;;;;;9.89;71.76;104109.88;6271720;28;20060;-73
2022/03/19 11:32:01;;;;;;;3.35;0.90;;;;;;;10.00;71.71;104109.94;6270924;28;20056;-74
2022/03/19 11:35:05;;;;;;;8.10;0.98;;;;;;;10.13;70.64;104101.22;6271636;28;20060;-73
2022/03/19 11:38:11;;;;;;;90.68;16.67;;;;;;;10.30;70.31;104101.28;6271440;28;20492;-74
2022/03/19 11:41:22;;;;;;;2.03;0.75;;;;;;;10.62;67.06;104098.66;6270742;28;20416;-74
2022/03/19 11:44:25;;;;;;;1.83;0.52;;;;;;;10.62;67.61;104077.63;6271073;28;20139;-74
2022/03/19 11:47:34;;;;;;;19.38;1.30;;;;;;;10.73;66.05;104085.53;6271508;28;20060;-74
2022/03/19 11:50:37;;;;;;;1.23;0.57;;;;;;;10.80;65.79;104079.38;6270687;28;20052;-73
2022/03/19 11:53:50;;;;;;;2.97;0.30;;;;;;;11.00;61.35;104068.84;6271702;28;20489;-74
2022/03/19 11:57:05;;;;;;;1.33;0.60;;;;;;;11.29;61.23;104061.75;6276110;28;20049;-73
2022/03/19 12:00:09;;;;;;;1.98;0.75;;;;;;;11.53;60.17;104066.03;6276360;28;20056;-74
2022/03/19 12:03:13;;;;;;;4.32;0.57;;;;;;;11.65;59.52;104044.91;6275807;28;20416;-73
2022/03/19 12:06:29;;;;;;;0.90;0.45;;;;;;;11.89;59.71;104046.56;6276565;28;20049;-74
2022/03/19 12:09:33;;;;;;;1.15;0.38;;;;;;;12.09;54.94;104050.88;6276284;28;20095;-74
2022/03/19 12:12:34;;;;;;;6.07;0.55;;;;;;;12.01;55.79;104032.44;6275247;28;20109;-74
2022/03/19 12:15:49;;;;;;;1.63;0.75;;;;;;;12.04;53.26;104019.25;6276620;28;20045;-73
2022/03/19 12:18:53;;;;;;;1.27;0.22;;;;;;;12.26;54.98;104014.69;6276021;28;20048;-73
2022/03/19 12:21:54;;;;;;;1.17;0.32;;;;;;;12.35;54.07;104017.28;6275132;28;20056;-74
2022/03/19 12:25:11;;;;;;;2.97;0.47;;;;;;;12.29;52.61;104001.47;6276234;28;20117;-74
2022/03/19 12:28:16;;;;;;;2.08;0.50;;;;;;;12.61;54.72;103990.63;6275751;28;20048;-73
2022/03/19 12:31:18;;;;;;;2.55;0.68;;;;;;;12.74;53.74;103979.97;6275322;28;20547;-74
2022/03/19 12:34:22;;;;;;;0.80;0.40;;;;;;;12.88;54.82;103978.91;6275575;28;20049;-74
2022/03/19 12:37:24;;;;;;;0.95;0.40;;;;;;;12.87;54.23;103968.38;6275629;28;20052;-74
2022/03/19 12:40:27;;;;;;;0.68;0.32;;;;;;;13.05;54.50;103969.94;6274808;28;20049;-74
2022/03/19 12:43:37;;;;;;;0.77;0.47;;;;;;;13.25;52.77;103960.00;6275242;28;20049;-73
2022/03/19 12:46:39;;;;;;;;;;;;;;;13.49;52.75;103965.84;6276147;28;20740;-74
2022/03/19 12:49:51;;;;;;;2.08;0.40;;;;;;;13.37;52.09;103966.91;6274932;28;19921;-73
2022/03/19 12:52:53;;;;;;;0.98;0.40;;;;;;;13.06;50.08;103961.13;6274919;28;20041;-74
2022/03/19 12:56:10;;;;;;;0.70;0.60;;;;;;;12.24;51.41;103952.31;6274855;28;20053;-74
2022/03/19 12:59:17;;;;;;;2.80;0.60;;;;;;;11.73;53.73;103946.53;6275116;28;20390;-73
2022/03/19 13:02:19;;;;;;;4.78;0.70;;;;;;;11.82;53.54;103938.56;6274296;28;20604;-73
2022/03/19 13:05:22;;;;;;;3.97;0.70;;;;;;;11.77;54.97;103933.31;6274770;28;20045;-73
2022/03/19 13:08:23;;;;;;;1.45;0.65;;;;;;;12.11;51.91;103931.31;6273738;28;20076;-73
2022/03/19 13:11:24;;;;;;;1.17;0.45;;;;;;;12.25;52.98;103933.81;6274169;28;20056;-74
2022/03/19 13:14:26;;;;;;;4.05;0.80;;;;;;;12.41;52.09;103940.72;6274561;28;20484;-71
2022/03/19 13:17:29;;;;;;;0.65;0.40;;;;;;;11.98;53.66;103937.56;6274564;28;20052;-72
2022/03/19 13:20:31;;;;;;;1.02;0.50;;;;;;;11.55;51.84;103929.09;6272299;28;20110;-71
2022/03/19 13:23:34;;;;;;;0.70;0.45;;;;;;;11.15;55.95;103918.75;6274551;28;20049;-72
2022/03/19 13:26:36;;;;;;;0.70;0.60;;;;;;;11.24;54.33;103912.59;6274219;28;20056;-71
2022/03/19 13:29:37;;;;;;;0.77;0.47;;;;;;;11.47;55.98;103897.50;6274497;28;20053;-71
2022/03/19 13:32:38;;;;;;;1.85;0.40;;;;;;;11.61;54.61;103914.09;6273531;28;20456;-71
2022/03/19 13:35:47;;;;;;;1.13;0.35;;;;;;;11.72;54.24;103900.88;6274331;28;20444;-72
2022/03/19 13:38:53;;;;;;;0.83;0.50;;;;;;;11.60;54.98;103899.19;6274095;28;20052;-71
2022/03/19 13:42:06;;;;;;;0.55;0.55;;;;;;;11.50;55.70;103894.88;6273630;28;20057;-72
2022/03/19 13:45:10;;;;;;;1.35;0.43;;;;;;;11.47;56.19;103876.44;6273929;28;20420;-74
2022/03/19 13:48:12;;;;;;;2.05;1.33;;;;;;;11.30;55.96;103886.22;6273764;28;20501;-74
2022/03/19 13:51:16;;;;;;;1.23;0.50;;;;;;;11.15;56.32;103876.66;6273190;28;20049;-73
2022/03/19 13:54:18;;;;;;;1.63;0.43;;;;;;;10.98;56.29;103878.47;6273842;28;20503;-74
2022/03/19 13:57:19;;;;;;;0.25;0.20;;;;;;;11.15;56.43;103874.88;6273690;28;20057;-74
2022/03/19 14:00:24;;;;;;;0.20;0.20;;;;;;;11.89;54.55;103864.72;6272864;28;20049;-74
2022/03/19 14:03:25;;;;;;;8.60;4.63;;;;;;;12.30;52.16;103870.50;6273575;28;20048;-74
2022/03/19 14:06:33;;;;;;;0.38;0.28;;;;;;;12.61;51.86;103857.84;6273338;28;20052;-74
2022/03/19 14:09:35;;;;;;;1.13;0.90;;;;;;;12.87;51.25;103839.03;6273289;28;20102;-73
2022/03/19 14:12:38;;;;;;;0.70;0.50;;;;;;;12.45;48.85;103846.59;6272703;28;20103;-73
2022/03/19 14:15:42;;;;;;;9.63;0.93;;;;;;;12.19;49.12;103834.56;6273034;28;20493;-74
2022/03/19 14:18:46;;;;;;;2.25;0.47;;;;;;;12.62;48.83;103823.50;6272805;28;20128;-74
2022/03/19 14:21:48;;;;;;;0.38;0.22;;;;;;;13.03;48.12;103815.94;6272628;28;20052;-74